Portknockie, United Kingdom
Current Conditions -  °F | °C
As of 7:50 PM on Sunday 21 Dec 2014 (Local Time) from EGQS Reporting Station
Broken Clouds Broken Clouds  
Wind Chill: 40°   Ceiling: 15000
Heat Index: 46°   Visibility: 6mi
Dew Point: 43°   Wind: 16mph
Humidity: 87%   Direction: 260°W
Pressure: 29.5"   Gusts: NA
Location:  57.7°N, 2.86°W
Report Text: EGQS 211950Z 26014KT 9999 SCT034 BKN150 08/06 Q0999 BLU
Loading
Personal Weather Stations






























Interactive Weather Map New forecast layout! Learn more

10-Day Weather Forecast

Advertisements
Track Severe Weather on mobile